sensor_id;sensor_type;location;lat;lon;timestamp;pressure;altitude;pressure_sealevel;temperature;humidity
62436;BME280;48480;50.252;18.848;2023-03-17T00:00:03;99379.90;;;0.91;57.77
62436;BME280;48480;50.252;18.848;2023-03-17T00:02:29;99379.95;;;0.91;57.81
62436;BME280;48480;50.252;18.848;2023-03-17T00:04:55;99366.48;;;0.82;57.80
62436;BME280;48480;50.252;18.848;2023-03-17T00:07:20;99383.80;;;0.93;57.84
62436;BME280;48480;50.252;18.848;2023-03-17T00:09:46;99385.19;;;0.93;57.94
62436;BME280;48480;50.252;18.848;2023-03-17T00:12:12;99383.72;;;0.91;57.90
62436;BME280;48480;50.252;18.848;2023-03-17T00:14:38;99388.23;;;0.85;58.08
62436;BME280;48480;50.252;18.848;2023-03-17T00:17:03;99395.79;;;0.84;58.16
62436;BME280;48480;50.252;18.848;2023-03-17T00:19:31;99394.99;;;0.83;58.14
62436;BME280;48480;50.252;18.848;2023-03-17T00:21:59;99394.28;;;0.82;58.23
62436;BME280;48480;50.252;18.848;2023-03-17T00:24:25;99395.20;;;0.83;58.02
62436;BME280;48480;50.252;18.848;2023-03-17T00:26:50;99400.73;;;0.83;58.23
62436;BME280;48480;50.252;18.848;2023-03-17T00:29:16;99401.92;;;0.82;58.47
62436;BME280;48480;50.252;18.848;2023-03-17T00:31:42;99400.26;;;0.80;58.44
62436;BME280;48480;50.252;18.848;2023-03-17T00:34:15;99399.51;;;0.77;58.43
62436;BME280;48480;50.252;18.848;2023-03-17T00:36:45;99401.48;;;0.76;58.57
62436;BME280;48480;50.252;18.848;2023-03-17T00:39:12;99404.24;;;0.74;58.76
62436;BME280;48480;50.252;18.848;2023-03-17T00:41:39;99407.40;;;0.72;58.79
62436;BME280;48480;50.252;18.848;2023-03-17T00:44:04;99404.20;;;0.71;58.88
62436;BME280;48480;50.252;18.848;2023-03-17T00:46:30;99403.67;;;0.68;58.94
62436;BME280;48480;50.252;18.848;2023-03-17T00:49:23;99403.52;;;0.65;58.82
62436;BME280;48480;50.252;18.848;2023-03-17T00:51:50;99403.61;;;0.59;58.98
62436;BME280;48480;50.252;18.848;2023-03-17T00:54:16;99399.61;;;0.55;59.10
62436;BME280;48480;50.252;18.848;2023-03-17T00:56:43;99398.66;;;0.53;59.03
62436;BME280;48480;50.252;18.848;2023-03-17T00:59:23;99384.95;;;0.44;59.00
62436;BME280;48480;50.252;18.848;2023-03-17T01:01:49;99388.25;;;0.43;59.20
62436;BME280;48480;50.252;18.848;2023-03-17T01:04:15;99380.33;;;0.36;59.36
62436;BME280;48480;50.252;18.848;2023-03-17T01:06:41;99375.64;;;0.28;59.73
62436;BME280;48480;50.252;18.848;2023-03-17T01:09:09;99375.41;;;0.25;60.02
62436;BME280;48480;50.252;18.848;2023-03-17T01:11:36;99365.02;;;0.19;60.26
62436;BME280;48480;50.252;18.848;2023-03-17T01:14:02;99368.44;;;0.21;60.45
62436;BME280;48480;50.252;18.848;2023-03-17T01:16:28;99368.02;;;0.25;60.55
62436;BME280;48480;50.252;18.848;2023-03-17T01:18:54;99364.01;;;0.27;60.62
62436;BME280;48480;50.252;18.848;2023-03-17T01:21:19;99364.20;;;0.28;60.73
62436;BME280;48480;50.252;18.848;2023-03-17T01:23:44;99366.69;;;0.27;60.90
62436;BME280;48480;50.252;18.848;2023-03-17T01:26:10;99367.05;;;0.29;60.73
62436;BME280;48480;50.252;18.848;2023-03-17T01:28:35;99358.48;;;0.32;60.91
62436;BME280;48480;50.252;18.848;2023-03-17T01:31:01;99347.54;;;0.25;61.00
62436;BME280;48480;50.252;18.848;2023-03-17T01:33:26;99364.55;;;0.32;60.85
62436;BME280;48480;50.252;18.848;2023-03-17T01:35:53;99359.92;;;0.34;60.97
62436;BME280;48480;50.252;18.848;2023-03-17T01:38:18;99359.76;;;0.36;60.97
62436;BME280;48480;50.252;18.848;2023-03-17T01:40:47;99357.75;;;0.36;61.06
62436;BME280;48480;50.252;18.848;2023-03-17T01:43:25;99361.80;;;0.31;61.26
62436;BME280;48480;50.252;18.848;2023-03-17T01:54:07;99359.86;;;0.15;61.85
62436;BME280;48480;50.252;18.848;2023-03-17T01:56:33;99360.04;;;0.12;61.88
62436;BME280;48480;50.252;18.848;2023-03-17T01:59:01;99366.71;;;0.11;61.88
62436;BME280;48480;50.252;18.848;2023-03-17T02:01:32;99366.45;;;0.12;62.00
62436;BME280;48480;50.252;18.848;2023-03-17T02:04:01;99362.58;;;0.13;62.06
62436;BME280;48480;50.252;18.848;2023-03-17T02:06:27;99364.71;;;0.11;62.19
62436;BME280;48480;50.252;18.848;2023-03-17T02:08:53;99356.42;;;0.09;62.21
62436;BME280;48480;50.252;18.848;2023-03-17T02:11:19;99344.59;;;0.07;62.14
62436;BME280;48480;50.252;18.848;2023-03-17T02:13:47;99342.17;;;0.04;62.38
62436;BME280;48480;50.252;18.848;2023-03-17T02:16:16;99342.17;;;-0.03;62.53
62436;BME280;48480;50.252;18.848;2023-03-17T02:18:42;99336.70;;;-0.13;62.86
62436;BME280;48480;50.252;18.848;2023-03-17T02:21:45;99330.65;;;-0.21;63.14
62436;BME280;48480;50.252;18.848;2023-03-17T02:26:47;99314.34;;;-0.43;63.98
62436;BME280;48480;50.252;18.848;2023-03-17T02:29:14;99314.51;;;-0.46;64.01
62436;BME280;48480;50.252;18.848;2023-03-17T02:31:41;99316.55;;;-0.48;64.10
62436;BME280;48480;50.252;18.848;2023-03-17T02:34:08;99312.80;;;-0.53;64.14
62436;BME280;48480;50.252;18.848;2023-03-17T02:36:33;99309.66;;;-0.58;64.31
62436;BME280;48480;50.252;18.848;2023-03-17T02:38:59;99304.75;;;-0.64;64.58
62436;BME280;48480;50.252;18.848;2023-03-17T02:41:25;99298.67;;;-0.72;64.79
62436;BME280;48480;50.252;18.848;2023-03-17T02:43:51;99307.91;;;-0.75;64.96
62436;BME280;48480;50.252;18.848;2023-03-17T02:46:18;99307.23;;;-0.79;64.91
62436;BME280;48480;50.252;18.848;2023-03-17T02:48:44;99305.48;;;-0.79;65.23
62436;BME280;48480;50.252;18.848;2023-03-17T02:51:10;99299.71;;;-0.81;65.24
62436;BME280;48480;50.252;18.848;2023-03-17T02:53:36;99290.69;;;-0.82;65.18
62436;BME280;48480;50.252;18.848;2023-03-17T02:56:02;99282.34;;;-0.83;65.37
62436;BME280;48480;50.252;18.848;2023-03-17T02:58:28;99279.19;;;-0.83;65.39
62436;BME280;48480;50.252;18.848;2023-03-17T03:00:53;99290.30;;;-0.81;65.48
62436;BME280;48480;50.252;18.848;2023-03-17T03:03:19;99302.63;;;-0.77;65.58
62436;BME280;48480;50.252;18.848;2023-03-17T03:05:44;99306.10;;;-0.80;65.55
62436;BME280;48480;50.252;18.848;2023-03-17T03:08:10;99315.68;;;-0.78;65.70
62436;BME280;48480;50.252;18.848;2023-03-17T03:10:35;99321.12;;;-0.78;65.67
62436;BME280;48480;50.252;18.848;2023-03-17T03:13:01;99315.91;;;-0.81;66.00
62436;BME280;48480;50.252;18.848;2023-03-17T03:15:26;99315.66;;;-0.83;65.96
62436;BME280;48480;50.252;18.848;2023-03-17T03:17:51;99314.34;;;-0.88;65.97
62436;BME280;48480;50.252;18.848;2023-03-17T03:20:17;99308.83;;;-0.88;65.87
62436;BME280;48480;50.252;18.848;2023-03-17T03:22:43;99307.02;;;-0.88;66.03
62436;BME280;48480;50.252;18.848;2023-03-17T03:25:08;99312.98;;;-0.91;66.23
62436;BME280;48480;50.252;18.848;2023-03-17T03:27:34;99305.88;;;-0.93;66.29
62436;BME280;48480;50.252;18.848;2023-03-17T03:30:00;99307.89;;;-0.94;66.46
62436;BME280;48480;50.252;18.848;2023-03-17T03:32:25;99314.73;;;-0.95;66.71
62436;BME280;48480;50.252;18.848;2023-03-17T03:34:52;99323.44;;;-0.94;66.85
62436;BME280;48480;50.252;18.848;2023-03-17T03:37:17;99322.59;;;-0.94;66.88
62436;BME280;48480;50.252;18.848;2023-03-17T03:39:43;99320.64;;;-0.94;66.91
62436;BME280;48480;50.252;18.848;2023-03-17T03:42:09;99323.85;;;-0.94;66.82
62436;BME280;48480;50.252;18.848;2023-03-17T03:44:34;99327.25;;;-0.95;66.68
62436;BME280;48480;50.252;18.848;2023-03-17T03:47:00;99329.14;;;-0.93;66.74
62436;BME280;48480;50.252;18.848;2023-03-17T03:49:25;99324.75;;;-0.91;66.68
62436;BME280;48480;50.252;18.848;2023-03-17T03:51:51;99322.06;;;-0.87;66.42
62436;BME280;48480;50.252;18.848;2023-03-17T03:54:16;99314.63;;;-0.85;66.33
62436;BME280;48480;50.252;18.848;2023-03-17T03:56:42;99315.33;;;-0.83;66.12
62436;BME280;48480;50.252;18.848;2023-03-17T03:59:07;99319.55;;;-0.78;66.21
62436;BME280;48480;50.252;18.848;2023-03-17T04:01:34;99320.57;;;-0.75;65.99
62436;BME280;48480;50.252;18.848;2023-03-17T04:04:00;99321.83;;;-0.76;66.03
62436;BME280;48480;50.252;18.848;2023-03-17T04:06:26;99322.45;;;-0.77;65.88
62436;BME280;48480;50.252;18.848;2023-03-17T04:08:51;99319.34;;;-0.79;65.92
62436;BME280;48480;50.252;18.848;2023-03-17T04:11:17;99311.65;;;-0.86;66.08
62436;BME280;48480;50.252;18.848;2023-03-17T04:13:42;99305.15;;;-0.89;66.15
62436;BME280;48480;50.252;18.848;2023-03-17T04:16:08;99301.54;;;-0.92;66.15
62436;BME280;48480;50.252;18.848;2023-03-17T04:18:33;99304.57;;;-0.95;66.16
62436;BME280;48480;50.252;18.848;2023-03-17T04:21:00;99307.20;;;-0.96;66.25
62436;BME280;48480;50.252;18.848;2023-03-17T04:23:26;99305.93;;;-1.02;66.22
62436;BME280;48480;50.252;18.848;2023-03-17T04:25:52;99307.81;;;-1.08;66.59
62436;BME280;48480;50.252;18.848;2023-03-17T04:28:18;99312.99;;;-1.07;66.59
62436;BME280;48480;50.252;18.848;2023-03-17T04:30:44;99318.78;;;-1.06;66.43
62436;BME280;48480;50.252;18.848;2023-03-17T04:33:10;99318.87;;;-1.06;66.45
62436;BME280;48480;50.252;18.848;2023-03-17T04:35:36;99314.98;;;-1.07;66.65
62436;BME280;48480;50.252;18.848;2023-03-17T04:38:01;99313.45;;;-1.12;66.70
62436;BME280;48480;50.252;18.848;2023-03-17T04:40:27;99313.41;;;-1.21;66.86
62436;BME280;48480;50.252;18.848;2023-03-17T04:42:52;99310.88;;;-1.32;67.12
62436;BME280;48480;50.252;18.848;2023-03-17T04:45:18;99306.52;;;-1.42;67.56
62436;BME280;48480;50.252;18.848;2023-03-17T04:47:43;99307.91;;;-1.48;67.74
62436;BME280;48480;50.252;18.848;2023-03-17T04:50:13;99311.33;;;-1.51;67.70
62436;BME280;48480;50.252;18.848;2023-03-17T04:52:38;99309.88;;;-1.47;67.66
62436;BME280;48480;50.252;18.848;2023-03-17T04:55:05;99308.95;;;-1.43;67.70
62436;BME280;48480;50.252;18.848;2023-03-17T04:57:34;99314.71;;;-1.39;67.39
62436;BME280;48480;50.252;18.848;2023-03-17T05:00:00;99314.42;;;-1.38;67.39
62436;BME280;48480;50.252;18.848;2023-03-17T05:02:25;99308.92;;;-1.44;67.43
62436;BME280;48480;50.252;18.848;2023-03-17T05:04:50;99316.36;;;-1.37;67.48
62436;BME280;48480;50.252;18.848;2023-03-17T05:07:16;99320.39;;;-1.37;67.46
62436;BME280;48480;50.252;18.848;2023-03-17T05:09:42;99316.97;;;-1.38;67.41
62436;BME280;48480;50.252;18.848;2023-03-17T05:12:08;99320.77;;;-1.36;67.40
62436;BME280;48480;50.252;18.848;2023-03-17T05:14:34;99317.80;;;-1.32;67.28
62436;BME280;48480;50.252;18.848;2023-03-17T05:17:00;99319.65;;;-1.31;67.12
62436;BME280;48480;50.252;18.848;2023-03-17T05:19:25;99319.57;;;-1.30;67.08
62436;BME280;48480;50.252;18.848;2023-03-17T05:21:51;99322.09;;;-1.28;66.94
62436;BME280;48480;50.252;18.848;2023-03-17T05:24:16;99324.16;;;-1.23;66.91
62436;BME280;48480;50.252;18.848;2023-03-17T05:26:42;99326.57;;;-1.20;66.90
62436;BME280;48480;50.252;18.848;2023-03-17T05:29:07;99320.86;;;-1.21;66.78
62436;BME280;48480;50.252;18.848;2023-03-17T05:31:33;99320.47;;;-1.18;66.83
62436;BME280;48480;50.252;18.848;2023-03-17T05:33:58;99321.48;;;-1.13;66.65
62436;BME280;48480;50.252;18.848;2023-03-17T05:36:24;99319.38;;;-1.10;66.50
62436;BME280;48480;50.252;18.848;2023-03-17T05:38:49;99326.37;;;-1.04;66.13
62436;BME280;48480;50.252;18.848;2023-03-17T05:41:15;99327.67;;;-1.00;66.15
62436;BME280;48480;50.252;18.848;2023-03-17T05:43:41;99325.41;;;-0.98;66.20
62436;BME280;48480;50.252;18.848;2023-03-17T05:46:07;99323.05;;;-0.96;66.14
62436;BME280;48480;50.252;18.848;2023-03-17T05:48:32;99312.66;;;-0.98;65.85
62436;BME280;48480;50.252;18.848;2023-03-17T05:50:57;99325.45;;;-0.86;65.90
62436;BME280;48480;50.252;18.848;2023-03-17T05:53:23;99324.05;;;-0.80;65.71
62436;BME280;48480;50.252;18.848;2023-03-17T05:55:48;99328.32;;;-0.73;65.68
62436;BME280;48480;50.252;18.848;2023-03-17T05:58:14;99327.35;;;-0.70;65.30
62436;BME280;48480;50.252;18.848;2023-03-17T06:00:43;99326.88;;;-0.67;65.21
62436;BME280;48480;50.252;18.848;2023-03-17T06:03:08;99326.39;;;-0.61;65.30
62436;BME280;48480;50.252;18.848;2023-03-17T06:05:34;99327.88;;;-0.53;64.96
62436;BME280;48480;50.252;18.848;2023-03-17T06:07:59;99328.17;;;-0.46;64.74
62436;BME280;48480;50.252;18.848;2023-03-17T06:10:25;99328.75;;;-0.40;64.49
62436;BME280;48480;50.252;18.848;2023-03-17T06:12:51;99325.41;;;-0.37;64.44
62436;BME280;48480;50.252;18.848;2023-03-17T06:15:17;99329.18;;;-0.30;64.31
62436;BME280;48480;50.252;18.848;2023-03-17T06:17:43;99326.21;;;-0.23;64.24
62436;BME280;48480;50.252;18.848;2023-03-17T06:20:09;99324.54;;;-0.18;64.00
62436;BME280;48480;50.252;18.848;2023-03-17T06:22:35;99324.77;;;-0.15;63.77
62436;BME280;48480;50.252;18.848;2023-03-17T06:25:01;99327.33;;;-0.12;63.66
62436;BME280;48480;50.252;18.848;2023-03-17T06:27:28;99325.29;;;-0.08;63.68
62436;BME280;48480;50.252;18.848;2023-03-17T06:29:57;99327.95;;;-0.01;63.51
62436;BME280;48480;50.252;18.848;2023-03-17T06:32:24;99329.14;;;0.06;63.33
62436;BME280;48480;50.252;18.848;2023-03-17T06:34:50;99323.91;;;0.09;63.20
62436;BME280;48480;50.252;18.848;2023-03-17T06:37:16;99320.11;;;0.13;63.22
62436;BME280;48480;50.252;18.848;2023-03-17T06:39:42;99323.45;;;0.22;63.15
62436;BME280;48480;50.252;18.848;2023-03-17T06:42:08;99327.02;;;0.32;62.86
62436;BME280;48480;50.252;18.848;2023-03-17T06:44:33;99320.79;;;0.41;62.63
62436;BME280;48480;50.252;18.848;2023-03-17T06:47:00;99326.48;;;0.47;62.41
62436;BME280;48480;50.252;18.848;2023-03-17T06:49:26;99330.89;;;0.55;62.37
62436;BME280;48480;50.252;18.848;2023-03-17T06:51:52;99327.73;;;0.64;61.91
62436;BME280;48480;50.252;18.848;2023-03-17T06:54:18;99324.98;;;0.72;61.78
62436;BME280;48480;50.252;18.848;2023-03-17T06:56:45;99330.92;;;0.82;61.52
62436;BME280;48480;50.252;18.848;2023-03-17T06:59:12;99333.17;;;0.90;61.28
62436;BME280;48480;50.252;18.848;2023-03-17T07:01:38;99333.17;;;1.00;60.90
62436;BME280;48480;50.252;18.848;2023-03-17T07:04:04;99339.17;;;1.10;60.46
62436;BME280;48480;50.252;18.848;2023-03-17T07:06:31;99347.22;;;1.21;60.24
62436;BME280;48480;50.252;18.848;2023-03-17T07:08:57;99353.27;;;1.36;59.78
62436;BME280;48480;50.252;18.848;2023-03-17T07:11:23;99354.16;;;1.58;58.86
62436;BME280;48480;50.252;18.848;2023-03-17T07:13:52;99355.04;;;1.96;58.52
62436;BME280;48480;50.252;18.848;2023-03-17T07:16:18;99351.63;;;2.50;58.06
62436;BME280;48480;50.252;18.848;2023-03-17T07:18:45;99351.95;;;3.14;57.02
62436;BME280;48480;50.252;18.848;2023-03-17T07:21:11;99348.20;;;3.84;56.28
62436;BME280;48480;50.252;18.848;2023-03-17T07:23:36;99343.20;;;4.52;54.19
62436;BME280;48480;50.252;18.848;2023-03-17T07:26:02;99343.56;;;5.14;53.29
62436;BME280;48480;50.252;18.848;2023-03-17T07:28:28;99342.20;;;5.77;51.26
62436;BME280;48480;50.252;18.848;2023-03-17T07:30:54;99333.77;;;6.30;50.22
62436;BME280;48480;50.252;18.848;2023-03-17T07:33:22;99338.27;;;6.90;48.37
62436;BME280;48480;50.252;18.848;2023-03-17T07:35:49;99341.89;;;7.43;47.03
62436;BME280;48480;50.252;18.848;2023-03-17T07:38:16;99349.02;;;8.03;46.24
62436;BME280;48480;50.252;18.848;2023-03-17T07:40:46;99343.88;;;8.66;44.72
62436;BME280;48480;50.252;18.848;2023-03-17T07:43:12;99346.17;;;9.34;43.21
62436;BME280;48480;50.252;18.848;2023-03-17T07:45:38;99348.30;;;9.92;41.71
62436;BME280;48480;50.252;18.848;2023-03-17T07:48:05;99345.56;;;10.39;39.85
62436;BME280;48480;50.252;18.848;2023-03-17T07:50:32;99341.55;;;10.69;38.85
62436;BME280;48480;50.252;18.848;2023-03-17T07:52:57;99345.88;;;10.99;38.24
62436;BME280;48480;50.252;18.848;2023-03-17T07:55:23;99341.48;;;11.27;37.35
62436;BME280;48480;50.252;18.848;2023-03-17T07:57:49;99341.52;;;11.52;36.74
62436;BME280;48480;50.252;18.848;2023-03-17T08:00:15;99340.19;;;11.81;36.43
62436;BME280;48480;50.252;18.848;2023-03-17T08:02:41;99341.24;;;12.05;35.38
62436;BME280;48480;50.252;18.848;2023-03-17T08:05:08;99336.20;;;12.22;34.88
62436;BME280;48480;50.252;18.848;2023-03-17T08:07:34;99339.71;;;12.39;34.36
62436;BME280;48480;50.252;18.848;2023-03-17T08:10:03;99334.39;;;12.53;33.93
62436;BME280;48480;50.252;18.848;2023-03-17T08:12:29;99326.16;;;12.61;33.68
62436;BME280;48480;50.252;18.848;2023-03-17T08:14:55;99323.83;;;12.69;33.49
62436;BME280;48480;50.252;18.848;2023-03-17T08:17:20;99324.53;;;12.77;33.51
62436;BME280;48480;50.252;18.848;2023-03-17T08:19:54;99320.14;;;12.92;32.67
62436;BME280;48480;50.252;18.848;2023-03-17T08:22:19;99314.55;;;13.02;32.44
62436;BME280;48480;50.252;18.848;2023-03-17T08:24:45;99315.33;;;13.14;31.87
62436;BME280;48480;50.252;18.848;2023-03-17T08:27:11;99313.70;;;13.18;31.40
62436;BME280;48480;50.252;18.848;2023-03-17T08:29:37;99317.13;;;13.21;31.30
62436;BME280;48480;50.252;18.848;2023-03-17T08:32:02;99315.80;;;13.22;30.97
62436;BME280;48480;50.252;18.848;2023-03-17T08:34:28;99310.56;;;13.17;30.49
62436;BME280;48480;50.252;18.848;2023-03-17T08:36:53;99307.83;;;13.20;30.17
62436;BME280;48480;50.252;18.848;2023-03-17T08:39:19;99305.42;;;13.23;30.21
62436;BME280;48480;50.252;18.848;2023-03-17T08:41:44;99303.59;;;13.32;29.92
62436;BME280;48480;50.252;18.848;2023-03-17T08:44:10;99295.91;;;13.37;29.89
62436;BME280;48480;50.252;18.848;2023-03-17T08:46:37;99288.42;;;13.50;29.92
62436;BME280;48480;50.252;18.848;2023-03-17T08:49:02;99284.79;;;13.53;29.26
62436;BME280;48480;50.252;18.848;2023-03-17T08:51:30;99286.37;;;13.52;29.26
62436;BME280;48480;50.252;18.848;2023-03-17T08:53:57;99279.60;;;13.46;28.88
62436;BME280;48480;50.252;18.848;2023-03-17T08:56:23;99271.96;;;13.42;29.49
62436;BME280;48480;50.252;18.848;2023-03-17T08:58:49;99269.80;;;13.53;29.48
62436;BME280;48480;50.252;18.848;2023-03-17T09:01:15;99266.52;;;13.73;29.22
62436;BME280;48480;50.252;18.848;2023-03-17T09:03:42;99265.19;;;13.91;28.81
62436;BME280;48480;50.252;18.848;2023-03-17T09:06:08;99267.27;;;13.92;28.22
62436;BME280;48480;50.252;18.848;2023-03-17T09:08:36;99270.41;;;13.76;28.32
62436;BME280;48480;50.252;18.848;2023-03-17T09:11:10;99267.43;;;13.66;28.45
62436;BME280;48480;50.252;18.848;2023-03-17T09:13:37;99273.27;;;13.67;28.75
62436;BME280;48480;50.252;18.848;2023-03-17T09:16:04;99275.11;;;13.72;28.62
62436;BME280;48480;50.252;18.848;2023-03-17T09:18:30;99272.98;;;13.74;28.38
62436;BME280;48480;50.252;18.848;2023-03-17T09:20:57;99275.14;;;13.68;27.86
62436;BME280;48480;50.252;18.848;2023-03-17T09:23:23;99273.61;;;13.65;28.25
62436;BME280;48480;50.252;18.848;2023-03-17T09:25:48;99270.20;;;13.66;27.92
62436;BME280;48480;50.252;18.848;2023-03-17T09:28:14;99264.90;;;13.71;28.00
62436;BME280;48480;50.252;18.848;2023-03-17T09:30:40;99265.66;;;13.85;27.62
62436;BME280;48480;50.252;18.848;2023-03-17T09:33:08;99260.30;;;13.86;27.40
62436;BME280;48480;50.252;18.848;2023-03-17T09:35:34;99266.52;;;13.87;27.12
62436;BME280;48480;50.252;18.848;2023-03-17T09:38:00;99257.20;;;13.83;27.25
62436;BME280;48480;50.252;18.848;2023-03-17T09:40:48;99250.85;;;13.83;27.32
62436;BME280;48480;50.252;18.848;2023-03-17T09:49:07;99249.79;;;13.80;27.45
62436;BME280;48480;50.252;18.848;2023-03-17T09:51:33;99240.27;;;13.74;27.53
62436;BME280;48480;50.252;18.848;2023-03-17T09:54:02;99237.92;;;13.66;27.70
62436;BME280;48480;50.252;18.848;2023-03-17T09:56:31;99241.41;;;13.57;27.79
62436;BME280;48480;50.252;18.848;2023-03-17T09:59:00;99244.08;;;13.52;27.81
62436;BME280;48480;50.252;18.848;2023-03-17T10:01:29;99240.62;;;13.52;27.76
62436;BME280;48480;50.252;18.848;2023-03-17T10:03:58;99236.05;;;13.48;27.70
62436;BME280;48480;50.252;18.848;2023-03-17T10:06:29;99236.52;;;13.37;27.62
62436;BME280;48480;50.252;18.848;2023-03-17T10:09:11;99233.70;;;13.26;27.90
62436;BME280;48480;50.252;18.848;2023-03-17T10:11:41;99226.38;;;13.23;28.37
62436;BME280;48480;50.252;18.848;2023-03-17T10:19:28;99220.76;;;13.43;27.25
62436;BME280;48480;50.252;18.848;2023-03-17T10:22:00;99224.40;;;13.42;27.10
62436;BME280;48480;50.252;18.848;2023-03-17T10:24:31;99225.02;;;13.36;27.24
62436;BME280;48480;50.252;18.848;2023-03-17T10:27:00;99225.78;;;13.28;27.02
62436;BME280;48480;50.252;18.848;2023-03-17T10:29:29;99227.33;;;13.28;26.91
62436;BME280;48480;50.252;18.848;2023-03-17T10:31:56;99229.27;;;13.28;26.85
62436;BME280;48480;50.252;18.848;2023-03-17T10:34:25;99225.45;;;13.30;26.76
62436;BME280;48480;50.252;18.848;2023-03-17T10:36:59;99221.34;;;13.28;26.90
62436;BME280;48480;50.252;18.848;2023-03-17T10:39:25;99223.23;;;13.31;26.76
62436;BME280;48480;50.252;18.848;2023-03-17T10:44:53;99220.84;;;13.37;26.28
62436;BME280;48480;50.252;18.848;2023-03-17T10:47:32;99220.41;;;13.43;26.42
62436;BME280;48480;50.252;18.848;2023-03-17T10:50:22;99221.65;;;13.50;25.91
62436;BME280;48480;50.252;18.848;2023-03-17T10:53:04;99213.31;;;13.46;25.96
62436;BME280;48480;50.252;18.848;2023-03-17T10:55:38;99212.27;;;13.52;26.01
62436;BME280;48480;50.252;18.848;2023-03-17T10:58:44;99199.74;;;13.57;25.76
62436;BME280;48480;50.252;18.848;2023-03-17T11:01:20;99186.08;;;13.55;25.95
62436;BME280;48480;50.252;18.848;2023-03-17T11:03:48;99170.57;;;13.49;26.37
62436;BME280;48480;50.252;18.848;2023-03-17T11:06:18;99160.58;;;13.51;26.44
62436;BME280;48480;50.252;18.848;2023-03-17T11:08:47;99159.83;;;13.57;26.14
62436;BME280;48480;50.252;18.848;2023-03-17T11:11:32;99155.88;;;13.53;25.82
62436;BME280;48480;50.252;18.848;2023-03-17T11:14:11;99159.06;;;13.45;25.99
62436;BME280;48480;50.252;18.848;2023-03-17T11:17:01;99157.15;;;13.45;26.08
62436;BME280;48480;50.252;18.848;2023-03-17T11:19:33;99157.99;;;13.48;26.16
62436;BME280;48480;50.252;18.848;2023-03-17T11:22:33;99159.95;;;13.54;26.37
62436;BME280;48480;50.252;18.848;2023-03-17T11:25:12;99161.22;;;13.59;26.02
62436;BME280;48480;50.252;18.848;2023-03-17T11:27:55;99165.14;;;13.48;25.43
62436;BME280;48480;50.252;18.848;2023-03-17T11:30:29;99159.60;;;13.39;25.57
62436;BME280;48480;50.252;18.848;2023-03-17T11:35:36;99163.43;;;13.32;25.25
62436;BME280;48480;50.252;18.848;2023-03-17T11:46:35;99166.10;;;13.17;25.15
62436;BME280;48480;50.252;18.848;2023-03-17T11:49:10;99154.38;;;13.10;25.28
62436;BME280;48480;50.252;18.848;2023-03-17T11:57:00;99137.23;;;13.26;25.42
62436;BME280;48480;50.252;18.848;2023-03-17T11:59:37;99135.02;;;13.30;25.52
62436;BME280;48480;50.252;18.848;2023-03-17T12:05:05;99139.59;;;13.31;24.61
62436;BME280;48480;50.252;18.848;2023-03-17T12:08:02;99132.71;;;13.26;24.95
62436;BME280;48480;50.252;18.848;2023-03-17T12:10:38;99128.40;;;13.28;25.07
62436;BME280;48480;50.252;18.848;2023-03-17T12:13:28;99125.14;;;13.27;25.20
62436;BME280;48480;50.252;18.848;2023-03-17T12:15:59;99123.33;;;13.26;25.02
62436;BME280;48480;50.252;18.848;2023-03-17T12:18:32;99118.38;;;13.26;25.02
62436;BME280;48480;50.252;18.848;2023-03-17T12:21:03;99123.95;;;13.28;24.96
62436;BME280;48480;50.252;18.848;2023-03-17T12:23:49;99127.11;;;13.30;24.83
62436;BME280;48480;50.252;18.848;2023-03-17T12:26:17;99117.75;;;13.29;25.10
62436;BME280;48480;50.252;18.848;2023-03-17T12:31:16;99104.89;;;13.29;25.40
62436;BME280;48480;50.252;18.848;2023-03-17T12:34:12;99097.17;;;13.29;25.73
62436;BME280;48480;50.252;18.848;2023-03-17T12:36:40;99088.05;;;13.34;25.92
62436;BME280;48480;50.252;18.848;2023-03-17T12:39:11;99088.39;;;13.38;25.78
62436;BME280;48480;50.252;18.848;2023-03-17T12:41:43;99087.80;;;13.35;25.14
62436;BME280;48480;50.252;18.848;2023-03-17T12:44:23;99080.86;;;13.23;24.91
62436;BME280;48480;50.252;18.848;2023-03-17T12:52:18;99076.45;;;13.03;25.06
62436;BME280;48480;50.252;18.848;2023-03-17T12:54:49;99075.41;;;12.97;24.77
62436;BME280;48480;50.252;18.848;2023-03-17T12:57:27;99076.29;;;12.89;24.96
62436;BME280;48480;50.252;18.848;2023-03-17T13:00:03;99070.03;;;12.80;24.81
62436;BME280;48480;50.252;18.848;2023-03-17T13:02:37;99067.51;;;12.67;25.06
62436;BME280;48480;50.252;18.848;2023-03-17T13:05:12;99068.00;;;12.60;25.33
62436;BME280;48480;50.252;18.848;2023-03-17T13:07:46;99064.48;;;12.55;25.24
62436;BME280;48480;50.252;18.848;2023-03-17T13:10:37;99048.41;;;12.48;25.36
62436;BME280;48480;50.252;18.848;2023-03-17T13:13:06;99044.16;;;12.46;25.53
62436;BME280;48480;50.252;18.848;2023-03-17T13:20:44;99046.21;;;12.56;25.47
62436;BME280;48480;50.252;18.848;2023-03-17T13:23:16;99044.51;;;12.59;25.32
62436;BME280;48480;50.252;18.848;2023-03-17T13:25:52;99047.17;;;12.63;25.73
62436;BME280;48480;50.252;18.848;2023-03-17T13:28:38;99047.65;;;12.70;25.68
62436;BME280;48480;50.252;18.848;2023-03-17T13:31:31;99051.79;;;12.75;25.45
62436;BME280;48480;50.252;18.848;2023-03-17T13:34:06;99052.44;;;12.74;25.18
62436;BME280;48480;50.252;18.848;2023-03-17T13:47:48;99020.40;;;12.73;24.54
62436;BME280;48480;50.252;18.848;2023-03-17T13:50:24;99015.14;;;12.74;24.91
62436;BME280;48480;50.252;18.848;2023-03-17T13:52:56;99013.69;;;12.76;24.84
62436;BME280;48480;50.252;18.848;2023-03-17T13:55:33;99012.03;;;12.77;24.76
62436;BME280;48480;50.252;18.848;2023-03-17T14:00:32;99001.67;;;12.79;24.90
62436;BME280;48480;50.252;18.848;2023-03-17T14:05:50;98993.80;;;12.87;24.53
62436;BME280;48480;50.252;18.848;2023-03-17T14:08:37;98991.84;;;12.92;24.40
62436;BME280;48480;50.252;18.848;2023-03-17T14:11:15;98983.32;;;12.90;24.44
62436;BME280;48480;50.252;18.848;2023-03-17T14:13:54;98986.45;;;12.97;24.03